createdAt,value
2022-11-09T00:03:55.311Z,9.98
2022-11-09T00:08:59.425Z,7.80
2022-11-09T00:14:05.081Z,13.80
2022-11-09T00:19:06.860Z,7.17
2022-11-09T00:24:09.321Z,9.17
2022-11-09T00:29:11.085Z,11.93
2022-11-09T00:34:12.886Z,7.18
2022-11-09T00:39:17.322Z,9.10
2022-11-09T00:44:19.118Z,7.50
2022-11-09T00:49:20.825Z,7.78
2022-11-09T00:54:22.454Z,8.35
2022-11-09T00:59:24.381Z,8.95
2022-11-09T01:04:26.101Z,9.43
2022-11-09T01:09:28.022Z,9.70
2022-11-09T01:14:30.048Z,8.60
2022-11-09T01:19:32.010Z,7.90
2022-11-09T01:24:33.833Z,7.85
2022-11-09T01:29:35.659Z,8.13
2022-11-09T01:34:38.191Z,7.55
2022-11-09T01:39:39.841Z,9.38
2022-11-09T01:44:41.615Z,9.13
2022-11-09T01:49:52.749Z,8.15
2022-11-09T01:55:03.104Z,8.38
2022-11-09T02:00:11.859Z,7.78
2022-11-09T02:05:22.064Z,6.63
2022-11-09T02:10:33.672Z,5.93
2022-11-09T02:15:39.163Z,8.40
2022-11-09T02:20:49.284Z,7.15
2022-11-09T02:26:01.529Z,8.93
2022-11-09T02:31:06.737Z,5.75
2022-11-09T02:36:08.600Z,6.22
2022-11-09T02:41:12.991Z,7.53
2022-11-09T02:46:24.124Z,8.27
2022-11-09T02:51:25.882Z,10.60
2022-11-09T02:56:29.198Z,9.00
2022-11-09T03:01:31.523Z,6.65
2022-11-09T03:06:36.803Z,6.13
2022-11-09T03:11:44.836Z,9.52
2022-11-09T03:16:50.676Z,9.00
2022-11-09T03:21:53.422Z,9.85
2022-11-09T03:26:58.484Z,8.10
2022-11-09T03:32:00.602Z,11.37
2022-11-09T03:37:02.545Z,7.87
2022-11-09T03:42:04.890Z,7.22
2022-11-09T03:47:06.874Z,8.73
2022-11-09T03:52:08.640Z,8.55
2022-11-09T03:57:10.326Z,10.88
2022-11-09T04:02:12.061Z,8.45
2022-11-09T04:07:13.873Z,7.60
2022-11-09T04:12:15.640Z,7.95
2022-11-09T04:17:17.332Z,10.95
2022-11-09T04:22:19.138Z,7.25
2022-11-09T04:27:20.856Z,12.07
2022-11-09T04:32:22.619Z,8.65
2022-11-09T04:37:24.441Z,8.50
2022-11-09T04:42:26.124Z,8.88
2022-11-09T04:47:27.970Z,8.18
2022-11-09T04:52:29.693Z,8.95
2022-11-09T04:57:31.458Z,8.65
2022-11-09T05:02:33.179Z,9.00
2022-11-09T05:07:34.905Z,8.45
2022-11-09T05:12:36.532Z,8.77
2022-11-09T05:17:38.181Z,11.13
2022-11-09T05:22:59.544Z,9.70
2022-11-09T05:28:01.534Z,10.75
2022-11-09T05:33:03.449Z,9.98
2022-11-09T05:38:05.177Z,11.93
2022-11-09T05:43:06.940Z,9.15
2022-11-09T05:48:09.160Z,13.13
2022-11-09T05:53:12.188Z,8.85
2022-11-09T05:58:14.081Z,8.85
2022-11-09T06:03:15.756Z,9.27
2022-11-09T06:08:17.435Z,8.45
2022-11-09T06:13:19.503Z,10.23
2022-11-09T06:18:25.492Z,6.68
2022-11-09T06:23:27.722Z,8.85
2022-11-09T06:28:29.996Z,6.28
2022-11-09T06:33:33.764Z,9.53
2022-11-09T06:38:35.654Z,10.02
2022-11-09T06:43:37.454Z,11.60
2022-11-09T06:48:39.391Z,10.98
2022-11-09T06:53:41.437Z,7.75
2022-11-09T06:58:43.571Z,7.43
2022-11-09T07:03:45.303Z,8.40
2022-11-09T07:08:47.079Z,9.10
2022-11-09T07:13:54.787Z,12.52
2022-11-09T07:18:58.920Z,10.70
2022-11-09T07:24:00.688Z,7.43
2022-11-09T07:29:02.377Z,6.43
2022-11-09T07:34:04.887Z,7.32
2022-11-09T07:39:06.595Z,6.60
2022-11-09T07:44:08.926Z,9.13
2022-11-09T07:49:10.701Z,8.25
2022-11-09T07:54:12.709Z,6.40
2022-11-09T07:59:14.382Z,9.83
2022-11-09T08:04:16.141Z,8.80
2022-11-09T08:09:18.484Z,9.87
2022-11-09T08:14:20.373Z,9.40
2022-11-09T08:19:22.131Z,8.27
2022-11-09T08:24:24.370Z,7.78
2022-11-09T08:29:26.096Z,10.05
2022-11-09T08:34:27.859Z,8.60
2022-11-09T08:39:29.543Z,8.23
2022-11-09T08:44:31.276Z,8.70
2022-11-09T08:49:32.962Z,8.13
2022-11-09T08:54:36.331Z,7.47
2022-11-09T08:59:38.306Z,11.60
2022-11-09T09:04:40.501Z,7.03
2022-11-09T09:09:42.209Z,8.40
2022-11-09T09:14:43.897Z,10.35
2022-11-09T09:19:49.805Z,7.75
2022-11-09T09:24:51.904Z,6.93
2022-11-09T09:29:53.741Z,10.52
2022-11-09T09:34:55.481Z,7.78
2022-11-09T09:39:57.175Z,8.40
2022-11-09T09:45:04.687Z,15.82
2022-11-09T09:50:14.275Z,10.43
2022-11-09T09:55:24.450Z,8.50
2022-11-09T10:00:27.903Z,8.63
2022-11-09T10:05:44.382Z,6.03
2022-11-09T10:10:56.185Z,10.20
2022-11-09T10:16:29.619Z,6.10
2022-11-09T10:21:43.485Z,7.63
2022-11-09T10:26:55.097Z,7.22
2022-11-09T10:32:14.548Z,6.68
2022-11-09T10:37:22.889Z,6.88
2022-11-09T10:42:24.569Z,8.27
2022-11-09T10:47:47.920Z,7.38
2022-11-09T10:53:10.754Z,6.93
2022-11-09T10:58:47.242Z,5.80
2022-11-09T11:04:22.948Z,5.95
2022-11-09T11:09:43.612Z,5.50
2022-11-09T11:15:14.435Z,4.28
2022-11-09T11:20:37.541Z,4.63
2022-11-09T11:26:23.646Z,4.63
2022-11-09T11:31:44.314Z,4.25
2022-11-09T11:37:35.415Z,8.50
2022-11-09T11:43:17.238Z,4.72
2022-11-09T11:48:41.512Z,5.70
2022-11-09T11:59:33.170Z,5.57
2022-11-09T12:05:12.428Z,6.53
2022-11-09T12:11:01.793Z,6.45
2022-11-09T12:16:28.422Z,4.70
2022-11-09T12:22:18.380Z,7.53
2022-11-09T12:28:21.769Z,5.70
2022-11-09T12:33:49.426Z,5.82
2022-11-09T12:39:25.974Z,4.32
2022-11-09T12:45:01.789Z,4.72
2022-11-09T12:50:25.524Z,6.68
2022-11-09T12:55:55.837Z,4.80
2022-11-09T13:01:34.578Z,6.20
2022-11-09T13:07:04.144Z,6.65
2022-11-09T13:12:39.216Z,6.25
2022-11-09T13:18:23.871Z,4.50
2022-11-09T13:24:03.332Z,6.13
2022-11-09T13:29:30.804Z,6.68
2022-11-09T13:34:56.273Z,7.32
2022-11-09T13:40:31.671Z,7.10
2022-11-09T13:45:55.929Z,5.85
2022-11-09T13:51:35.540Z,6.22
2022-11-09T13:56:56.852Z,5.68
2022-11-09T14:02:22.806Z,5.03
2022-11-09T14:07:43.383Z,5.00
2022-11-09T14:13:34.494Z,6.32
2022-11-09T14:19:17.970Z,4.78
2022-11-09T14:24:38.564Z,8.75
2022-11-09T14:30:02.356Z,7.13
2022-11-09T14:35:22.957Z,6.97
2022-11-09T14:40:45.771Z,6.78
2022-11-09T14:46:07.559Z,16.35
2022-11-09T14:51:33.291Z,7.25
2022-11-09T14:56:55.190Z,8.13
2022-11-09T15:02:18.405Z,5.13
2022-11-09T15:13:02.300Z,6.70
2022-11-09T15:18:33.476Z,8.63
2022-11-09T15:24:17.589Z,10.37
2022-11-09T15:29:42.995Z,5.15
2022-11-09T15:35:13.578Z,7.07
2022-11-09T15:40:33.597Z,9.88
2022-11-09T15:45:54.858Z,10.02
2022-11-09T15:51:16.014Z,8.70
2022-11-09T15:56:36.495Z,8.90
2022-11-09T16:01:56.943Z,5.65
2022-11-09T16:07:17.468Z,4.47
2022-11-09T16:12:39.476Z,7.55
2022-11-09T16:18:04.114Z,9.27
2022-11-09T16:23:25.348Z,9.18
2022-11-09T16:28:46.319Z,8.18
2022-11-09T16:34:07.684Z,7.30
2022-11-09T16:39:28.071Z,7.93
2022-11-09T16:44:49.449Z,10.60
2022-11-09T16:50:09.865Z,6.68
2022-11-09T16:55:30.833Z,10.73
2022-11-09T17:06:33.875Z,7.47
2022-11-09T17:11:54.220Z,10.73
2022-11-09T17:17:21.273Z,8.10
2022-11-09T17:22:46.109Z,13.60
2022-11-09T17:28:07.625Z,8.05
2022-11-09T17:33:28.469Z,6.78
2022-11-09T17:38:48.902Z,8.55
2022-11-09T17:44:09.625Z,11.70
2022-11-09T17:49:29.875Z,11.40
2022-11-09T17:54:50.475Z,5.50
2022-11-09T18:00:11.481Z,8.88
2022-11-09T18:05:31.867Z,6.72
2022-11-09T18:10:51.900Z,6.57
2022-11-09T18:16:17.728Z,5.35
2022-11-09T18:21:39.122Z,6.70
2022-11-09T18:26:59.929Z,7.45
2022-11-09T18:32:20.045Z,8.20
2022-11-09T18:37:40.777Z,5.00
2022-11-09T18:43:01.264Z,6.20
2022-11-09T18:48:21.994Z,5.78
2022-11-09T18:53:44.431Z,7.28
2022-11-09T18:59:05.104Z,7.22
2022-11-09T19:04:25.932Z,6.43
2022-11-09T19:09:46.139Z,7.65
2022-11-09T19:15:07.456Z,6.53
2022-11-09T19:20:28.987Z,9.10
2022-11-09T19:25:50.271Z,9.38
2022-11-09T19:31:18.795Z,5.03
2022-11-09T19:36:39.604Z,5.97
2022-11-09T19:41:59.496Z,7.63
2022-11-09T19:47:20.093Z,8.98
2022-11-09T19:52:40.808Z,7.35
2022-11-09T19:58:01.124Z,9.68
2022-11-09T20:03:21.530Z,7.75
2022-11-09T20:08:41.878Z,9.32
2022-11-09T20:14:06.029Z,7.45
2022-11-09T20:19:26.160Z,11.60
2022-11-09T20:24:46.610Z,9.13
2022-11-09T20:30:07.641Z,10.10
2022-11-09T20:35:28.192Z,10.02
2022-11-09T20:41:00.145Z,10.68
2022-11-09T20:46:22.913Z,10.45
2022-11-09T20:51:43.301Z,10.85
2022-11-09T20:57:03.772Z,12.13
2022-11-09T21:02:24.378Z,10.93
2022-11-09T21:07:44.640Z,12.57
2022-11-09T21:13:05.131Z,13.52
2022-11-09T21:18:25.544Z,14.35
2022-11-09T21:24:04.692Z,13.50
2022-11-09T21:29:43.535Z,15.40
2022-11-09T21:35:04.808Z,17.58
2022-11-09T21:40:25.099Z,16.77
2022-11-09T21:45:49.287Z,18.40
2022-11-09T21:51:09.321Z,17.48
2022-11-09T21:56:30.127Z,21.08
2022-11-09T22:01:52.052Z,17.45
2022-11-09T22:07:12.698Z,20.42
2022-11-09T22:12:51.653Z,17.80
2022-11-09T22:18:31.933Z,24.33
2022-11-09T22:23:52.285Z,22.05
2022-11-09T22:29:12.400Z,26.05
2022-11-09T22:34:32.586Z,23.73
2022-11-09T22:39:52.728Z,22.08
2022-11-09T22:45:13.152Z,23.13
2022-11-09T22:50:33.335Z,22.67
2022-11-09T22:55:58.730Z,27.65
2022-11-09T23:01:20.451Z,28.85
2022-11-09T23:06:40.898Z,23.35
2022-11-09T23:12:01.379Z,22.98
2022-11-09T23:17:40.295Z,24.38
2022-11-09T23:23:00.621Z,27.67
2022-11-09T23:28:21.395Z,24.42
2022-11-09T23:33:42.543Z,25.13
2022-11-09T23:39:03.048Z,29.08
2022-11-09T23:44:23.309Z,29.00
2022-11-09T23:49:43.909Z,29.23
2022-11-09T23:55:04.592Z,28.98
